This is the latest recevied weather packets stored in our database for station/object HG8LXL-2. If no packets are shown the sender has not sent any weather packets the latest 10 day(s).
| Time | Temp. | Humidity | Pressure | Rain* | Wind** | Luminosity | Snow |
|---|---|---|---|---|---|---|---|
| 1788312351 | 18.89° C | 55% | 1017.4 hPa | - | - | - | - |
| 1788312051 | 18.33° C | 56% | 1017.5 hPa | - | - | - | - |
| 1788311751 | 18.33° C | 56% | 1017.5 hPa | - | - | - | - |
| 1788311451 | 18.89° C | 54% | 1017.5 hPa | - | - | - | - |
| 1788311151 | 18.89° C | 55% | 1017.5 hPa | - | - | - | - |
| 1788310851 | 18.33° C | 56% | 1017.5 hPa | - | - | - | - |
| 1788310551 | 17.78° C | 58% | 1017.4 hPa | - | - | - | - |
| 1788310251 | 18.33° C | 57% | 1017.4 hPa | - | - | - | - |
| 1788309954 | 18.33° C | 54% | 1017.3 hPa | - | - | - | - |
| 1788309651 | 18.89° C | 53% | 1017.3 hPa | - | - | - | - |
| 1788309351 | 19.44° C | 52% | 1017.2 hPa | - | - | - | - |
| 1788309051 | 19.44° C | 53% | 1017.3 hPa | - | - | - | - |
| 1788308751 | 18.89° C | 52% | 1017.3 hPa | - | - | - | - |
| 1788308456 | 19.44° C | 52% | 1017.3 hPa | - | - | - | - |
| 1788308151 | 19.44° C | 51% | 1017.3 hPa | - | - | - | - |
| 1788307851 | 19.44° C | 52% | 1017.3 hPa | - | - | - | - |
| 1788307551 | 18.89° C | 53% | 1017.3 hPa | - | - | - | - |
| 1788307253 | 20° C | 50% | 1017.2 hPa | - | - | - | - |
| 1788306951 | 20° C | 50% | 1017.3 hPa | - | - | - | - |
| 1788306651 | 20.56° C | 48% | 1017.2 hPa | - | - | - | - |
| 1788306351 | 20° C | 49% | 1017.2 hPa | - | - | - | - |
| 1788306051 | 20° C | 49% | 1017.2 hPa | - | - | - | - |
| 1788305751 | 20.56° C | 48% | 1017.1 hPa | - | - | - | - |
| 1788305451 | 20.56° C | 48% | 1017.1 hPa | - | - | - | - |
| 1788305151 | 20.56° C | 48% | 1017.2 hPa | - | - | - | - |
* Rain since midnight (hover to see other rain measurements)
** Current wind speed in m/s (hover to see current wind gust speed)